VOZ218 YPAD-YMML
Flight info
| Callsign | VOZ218 |
|---|---|
| Flight time | 0h 58m |
| Altitude | 37000 |
| Route | BENDO Y12 ARBEY |
| Aircraft | B38M/M-SDE1FGHILORVWXY/HB1 |
Departure
| Time | 2026-05-06 03:51 |
|---|---|
| Airport | Adelaide International Airport (YPAD) |
Arrival
| Time | 2026-05-06 04:49 |
|---|---|
| Airport | Melbourne Airport (YMML) |
| Time | Latitude | Longitude | Altitude | Speed | Heading |
|---|---|---|---|---|---|
| 2026-05-06 03:20 | -34.93857 | 138.53959 | 29 ft | 0 kts | 320° |
| 2026-05-06 03:44 | -34.93863 | 138.53965 | 29 ft | 2 kts | 319° |
| 2026-05-06 03:44 | -34.93875 | 138.53978 | 29 ft | 2 kts | 320° |
| 2026-05-06 03:44 | -34.93888 | 138.53991 | 29 ft | 2 kts | 321° |
| 2026-05-06 03:44 | -34.93901 | 138.54003 | 29 ft | 2 kts | 321° |
| 2026-05-06 03:45 | -34.93915 | 138.54013 | 29 ft | 2 kts | 351° |
| 2026-05-06 03:45 | -34.93930 | 138.54009 | 28 ft | 2 kts | 39° |
| 2026-05-06 03:45 | -34.93935 | 138.54004 | 28 ft | 0 kts | 46° |
| 2026-05-06 03:47 | -34.93931 | 138.54008 | 28 ft | 0 kts | 46° |
| 2026-05-06 03:48 | -34.93914 | 138.54032 | 28 ft | 7 kts | 48° |
| 2026-05-06 03:48 | -34.93884 | 138.54101 | 29 ft | 10 kts | 90° |
| 2026-05-06 03:48 | -34.93922 | 138.54167 | 30 ft | 10 kts | 138° |
| 2026-05-06 03:48 | -34.93982 | 138.54229 | 29 ft | 11 kts | 140° |
| 2026-05-06 03:49 | -34.93990 | 138.54236 | 29 ft | 1 kts | 140° |
| 2026-05-06 03:49 | -34.94019 | 138.54266 | 29 ft | 12 kts | 139° |
| 2026-05-06 03:49 | -34.94074 | 138.54308 | 30 ft | 4 kts | 186° |
| 2026-05-06 03:49 | -34.94092 | 138.54284 | 31 ft | 5 kts | 231° |
| 2026-05-06 03:50 | -34.94095 | 138.54281 | 31 ft | 0 kts | 230° |
| 2026-05-06 03:50 | -34.94101 | 138.54270 | 31 ft | 7 kts | 230° |
| 2026-05-06 03:50 | -34.94269 | 138.54027 | 29 ft | 77 kts | 230° |
| 2026-05-06 03:50 | -34.94769 | 138.53300 | 32 ft | 142 kts | 229° |
| 2026-05-06 03:51 | -34.95433 | 138.52322 | 550 ft | 156 kts | 231° |
| 2026-05-06 03:51 | -34.96156 | 138.51235 | 1192 ft | 171 kts | 235° |
| 2026-05-06 03:51 | -34.96891 | 138.50084 | 2081 ft | 173 kts | 234° |
| 2026-05-06 03:51 | -34.97660 | 138.48878 | 2799 ft | 191 kts | 233° |
| 2026-05-06 03:52 | -34.98551 | 138.47527 | 3411 ft | 214 kts | 231° |
| 2026-05-06 03:52 | -34.99583 | 138.46101 | 4096 ft | 233 kts | 231° |
| 2026-05-06 03:52 | -35.00664 | 138.44589 | 4951 ft | 242 kts | 231° |
| 2026-05-06 03:52 | -35.01802 | 138.43052 | 5979 ft | 249 kts | 224° |
| 2026-05-06 03:53 | -35.03378 | 138.42094 | 6898 ft | 261 kts | 194° |
| 2026-05-06 03:53 | -35.05227 | 138.42211 | 7874 ft | 276 kts | 168° |
| 2026-05-06 03:53 | -35.06935 | 138.43382 | 8868 ft | 287 kts | 146° |
| 2026-05-06 03:53 | -35.08509 | 138.44923 | 9763 ft | 294 kts | 147° |
| 2026-05-06 03:54 | -35.09941 | 138.46738 | 10470 ft | 314 kts | 127° |
| 2026-05-06 03:54 | -35.10719 | 138.49362 | 10984 ft | 338 kts | 98° |
| 2026-05-06 03:54 | -35.10606 | 138.52251 | 11615 ft | 352 kts | 85° |
| 2026-05-06 03:54 | -35.10365 | 138.55248 | 12442 ft | 355 kts | 86° |
| 2026-05-06 03:55 | -35.10148 | 138.58273 | 13229 ft | 361 kts | 87° |
| 2026-05-06 03:55 | -35.09940 | 138.61346 | 13986 ft | 365 kts | 87° |
| 2026-05-06 03:55 | -35.09736 | 138.64464 | 14697 ft | 369 kts | 87° |
| 2026-05-06 03:55 | -35.09535 | 138.67604 | 15402 ft | 372 kts | 87° |
| 2026-05-06 03:56 | -35.09333 | 138.70774 | 16101 ft | 376 kts | 87° |
| 2026-05-06 03:56 | -35.09128 | 138.73968 | 16780 ft | 379 kts | 87° |
| 2026-05-06 03:56 | -35.08920 | 138.77193 | 17464 ft | 382 kts | 87° |
| 2026-05-06 03:56 | -35.08714 | 138.80399 | 18097 ft | 386 kts | 87° |
| 2026-05-06 03:57 | -35.08501 | 138.83685 | 18700 ft | 388 kts | 88° |
| 2026-05-06 03:57 | -35.08286 | 138.86976 | 19347 ft | 389 kts | 87° |
| 2026-05-06 03:57 | -35.08070 | 138.90292 | 19768 ft | 395 kts | 87° |
| 2026-05-06 03:57 | -35.07849 | 138.93653 | 20289 ft | 398 kts | 88° |
| 2026-05-06 03:58 | -35.07625 | 138.97044 | 20787 ft | 402 kts | 88° |
| 2026-05-06 03:58 | -35.07399 | 139.00454 | 21290 ft | 405 kts | 88° |
| 2026-05-06 03:58 | -35.07170 | 139.03898 | 21785 ft | 409 kts | 88° |
| 2026-05-06 03:58 | -35.06939 | 139.07365 | 22307 ft | 412 kts | 88° |
| 2026-05-06 03:59 | -35.06707 | 139.10822 | 22807 ft | 416 kts | 88° |
| 2026-05-06 03:59 | -35.06469 | 139.14357 | 23313 ft | 420 kts | 88° |
| 2026-05-06 03:59 | -35.06325 | 139.17927 | 23820 ft | 421 kts | 97° |
| 2026-05-06 03:59 | -35.06916 | 139.21388 | 24253 ft | 416 kts | 116° |
| 2026-05-06 04:00 | -35.08266 | 139.24475 | 24643 ft | 412 kts | 130° |
| 2026-05-06 04:00 | -35.09921 | 139.27374 | 25030 ft | 416 kts | 130° |
| 2026-05-06 04:00 | -35.11611 | 139.30248 | 25488 ft | 418 kts | 131° |
| 2026-05-06 04:00 | -35.13344 | 139.33126 | 25914 ft | 421 kts | 131° |
| 2026-05-06 04:01 | -35.15081 | 139.35975 | 26337 ft | 424 kts | 131° |
| 2026-05-06 04:01 | -35.16855 | 139.38864 | 26752 ft | 427 kts | 131° |
| 2026-05-06 04:01 | -35.18651 | 139.41776 | 27167 ft | 430 kts | 131° |
| 2026-05-06 04:01 | -35.20462 | 139.44710 | 27571 ft | 433 kts | 131° |
| 2026-05-06 04:02 | -35.22283 | 139.47663 | 27968 ft | 436 kts | 131° |
| 2026-05-06 04:02 | -35.24095 | 139.50655 | 28360 ft | 440 kts | 127° |
| 2026-05-06 04:02 | -35.25508 | 139.54007 | 28767 ft | 446 kts | 116° |
| 2026-05-06 04:02 | -35.26775 | 139.57487 | 29123 ft | 449 kts | 117° |
| 2026-05-06 04:03 | -35.28066 | 139.60987 | 29474 ft | 452 kts | 117° |
| 2026-05-06 04:03 | -35.29369 | 139.64494 | 29866 ft | 454 kts | 117° |
| 2026-05-06 04:03 | -35.30680 | 139.68021 | 30221 ft | 457 kts | 117° |
| 2026-05-06 04:03 | -35.32001 | 139.71577 | 30537 ft | 460 kts | 117° |
| 2026-05-06 04:04 | -35.33313 | 139.75116 | 30836 ft | 462 kts | 116° |
| 2026-05-06 04:04 | -35.34645 | 139.78710 | 31099 ft | 466 kts | 116° |
| 2026-05-06 04:04 | -35.35987 | 139.82340 | 31374 ft | 469 kts | 116° |
| 2026-05-06 04:04 | -35.37339 | 139.85996 | 31662 ft | 471 kts | 116° |
| 2026-05-06 04:05 | -35.38692 | 139.89662 | 31936 ft | 474 kts | 116° |
| 2026-05-06 04:05 | -35.40052 | 139.93349 | 32213 ft | 476 kts | 116° |
| 2026-05-06 04:05 | -35.41422 | 139.97071 | 32494 ft | 479 kts | 116° |
| 2026-05-06 04:05 | -35.42797 | 140.00808 | 32737 ft | 482 kts | 116° |
| 2026-05-06 04:06 | -35.44164 | 140.04528 | 32991 ft | 485 kts | 116° |
| 2026-05-06 04:06 | -35.45553 | 140.08313 | 33273 ft | 487 kts | 116° |
| 2026-05-06 04:06 | -35.46946 | 140.12113 | 33524 ft | 490 kts | 116° |
| 2026-05-06 04:06 | -35.48350 | 140.15946 | 33782 ft | 492 kts | 116° |
| 2026-05-06 04:07 | -35.49735 | 140.19736 | 34061 ft | 495 kts | 116° |
| 2026-05-06 04:07 | -35.51147 | 140.23600 | 34309 ft | 496 kts | 115° |
| 2026-05-06 04:07 | -35.52559 | 140.27472 | 34590 ft | 497 kts | 115° |
| 2026-05-06 04:07 | -35.53968 | 140.31340 | 34878 ft | 497 kts | 115° |
| 2026-05-06 04:08 | -35.55380 | 140.35221 | 35164 ft | 497 kts | 115° |
| 2026-05-06 04:08 | -35.56792 | 140.39105 | 35451 ft | 498 kts | 115° |
| 2026-05-06 04:08 | -35.58201 | 140.42987 | 35716 ft | 498 kts | 115° |
| 2026-05-06 04:08 | -35.59613 | 140.46879 | 35929 ft | 500 kts | 115° |
| 2026-05-06 04:09 | -35.61025 | 140.50780 | 36173 ft | 500 kts | 115° |
| 2026-05-06 04:09 | -35.62439 | 140.54690 | 36438 ft | 500 kts | 115° |
| 2026-05-06 04:09 | -35.63835 | 140.58556 | 36679 ft | 501 kts | 115° |
| 2026-05-06 04:09 | -35.65251 | 140.62480 | 36931 ft | 501 kts | 115° |
| 2026-05-06 04:10 | -35.66666 | 140.66407 | 37150 ft | 502 kts | 115° |
| 2026-05-06 04:10 | -35.68083 | 140.70343 | 37208 ft | 506 kts | 115° |
| 2026-05-06 04:10 | -35.70950 | 140.78329 | 37181 ft | 511 kts | 115° |
| 2026-05-06 04:11 | -35.73805 | 140.86297 | 37178 ft | 511 kts | 114° |
| 2026-05-06 04:11 | -35.76669 | 140.94311 | 37178 ft | 511 kts | 114° |
| 2026-05-06 04:12 | -35.79529 | 141.02337 | 37176 ft | 512 kts | 114° |
| 2026-05-06 04:12 | -35.82384 | 141.10368 | 37166 ft | 512 kts | 114° |
| 2026-05-06 04:13 | -35.85235 | 141.18408 | 37168 ft | 512 kts | 114° |
| 2026-05-06 04:13 | -35.88070 | 141.26425 | 37164 ft | 512 kts | 114° |
| 2026-05-06 04:14 | -35.90910 | 141.34476 | 37168 ft | 512 kts | 114° |
| 2026-05-06 04:14 | -35.93749 | 141.42545 | 37159 ft | 513 kts | 114° |
| 2026-05-06 04:15 | -35.96593 | 141.50650 | 37158 ft | 513 kts | 114° |
| 2026-05-06 04:15 | -35.99407 | 141.58694 | 37160 ft | 513 kts | 114° |
| 2026-05-06 04:16 | -36.02233 | 141.66788 | 37152 ft | 513 kts | 114° |
| 2026-05-06 04:16 | -36.05057 | 141.74900 | 37151 ft | 513 kts | 114° |
| 2026-05-06 04:17 | -36.07873 | 141.83008 | 37156 ft | 513 kts | 113° |
| 2026-05-06 04:17 | -36.10666 | 141.91071 | 37149 ft | 514 kts | 113° |
| 2026-05-06 04:18 | -36.13479 | 141.99208 | 37148 ft | 514 kts | 113° |
| 2026-05-06 04:18 | -36.16283 | 142.07344 | 37143 ft | 514 kts | 113° |
| 2026-05-06 04:19 | -36.19079 | 142.15506 | 37142 ft | 514 kts | 113° |
| 2026-05-06 04:19 | -36.21854 | 142.23604 | 37139 ft | 514 kts | 113° |
| 2026-05-06 04:20 | -36.24646 | 142.31775 | 37147 ft | 514 kts | 113° |
| 2026-05-06 04:20 | -36.27434 | 142.39957 | 37136 ft | 515 kts | 113° |
| 2026-05-06 04:21 | -36.30213 | 142.48134 | 37135 ft | 515 kts | 113° |
| 2026-05-06 04:21 | -36.32975 | 142.56284 | 37134 ft | 515 kts | 112° |
| 2026-05-06 04:22 | -36.35747 | 142.64487 | 37132 ft | 515 kts | 112° |
| 2026-05-06 04:23 | -36.39889 | 142.76784 | 37138 ft | 515 kts | 112° |
| 2026-05-06 04:23 | -36.42653 | 142.85016 | 37129 ft | 516 kts | 112° |
| 2026-05-06 04:24 | -36.45396 | 142.93225 | 36750 ft | 513 kts | 112° |
| 2026-05-06 04:24 | -36.46776 | 142.97362 | 35693 ft | 521 kts | 112° |
| 2026-05-06 04:24 | -36.48134 | 143.01439 | 35203 ft | 515 kts | 112° |
| 2026-05-06 04:24 | -36.49497 | 143.05534 | 34604 ft | 513 kts | 112° |
| 2026-05-06 04:25 | -36.50863 | 143.09647 | 33839 ft | 514 kts | 112° |
| 2026-05-06 04:25 | -36.52225 | 143.13753 | 33078 ft | 513 kts | 112° |
| 2026-05-06 04:25 | -36.53579 | 143.17840 | 32525 ft | 508 kts | 112° |
| 2026-05-06 04:25 | -36.54915 | 143.21878 | 32076 ft | 502 kts | 112° |
| 2026-05-06 04:26 | -36.56238 | 143.25882 | 31599 ft | 496 kts | 112° |
| 2026-05-06 04:26 | -36.57547 | 143.29847 | 31034 ft | 493 kts | 112° |
| 2026-05-06 04:26 | -36.58828 | 143.33734 | 30467 ft | 492 kts | 112° |
| 2026-05-06 04:26 | -36.60122 | 143.37667 | 29849 ft | 489 kts | 112° |
| 2026-05-06 04:27 | -36.61409 | 143.41582 | 29265 ft | 486 kts | 112° |
| 2026-05-06 04:27 | -36.62680 | 143.45456 | 28740 ft | 481 kts | 112° |
| 2026-05-06 04:27 | -36.63943 | 143.49308 | 28208 ft | 477 kts | 112° |
| 2026-05-06 04:27 | -36.65174 | 143.53068 | 27676 ft | 473 kts | 112° |
| 2026-05-06 04:28 | -36.66414 | 143.56861 | 27168 ft | 470 kts | 112° |
| 2026-05-06 04:28 | -36.67640 | 143.60617 | 26648 ft | 467 kts | 112° |
| 2026-05-06 04:28 | -36.68856 | 143.64346 | 26132 ft | 464 kts | 112° |
| 2026-05-06 04:28 | -36.70069 | 143.68069 | 25625 ft | 461 kts | 112° |
| 2026-05-06 04:29 | -36.71271 | 143.71765 | 25122 ft | 459 kts | 112° |
| 2026-05-06 04:29 | -36.72466 | 143.75445 | 24639 ft | 457 kts | 112° |
| 2026-05-06 04:29 | -36.73657 | 143.79115 | 24128 ft | 455 kts | 112° |
| 2026-05-06 04:29 | -36.74840 | 143.82764 | 23616 ft | 454 kts | 112° |
| 2026-05-06 04:30 | -36.76019 | 143.86408 | 23037 ft | 452 kts | 112° |
| 2026-05-06 04:30 | -36.77190 | 143.90031 | 22538 ft | 448 kts | 112° |
| 2026-05-06 04:30 | -36.78343 | 143.93604 | 22042 ft | 438 kts | 112° |
| 2026-05-06 04:30 | -36.79447 | 143.97026 | 21612 ft | 424 kts | 112° |
| 2026-05-06 04:31 | -36.80532 | 144.00395 | 21193 ft | 412 kts | 112° |
| 2026-05-06 04:31 | -36.81606 | 144.03735 | 21120 ft | 419 kts | 112° |
| 2026-05-06 04:31 | -36.82698 | 144.07131 | 21122 ft | 423 kts | 112° |
| 2026-05-06 04:31 | -36.83795 | 144.10549 | 21116 ft | 424 kts | 112° |
| 2026-05-06 04:32 | -36.84893 | 144.13975 | 21125 ft | 424 kts | 112° |
| 2026-05-06 04:32 | -36.85988 | 144.17394 | 21123 ft | 424 kts | 112° |
| 2026-05-06 04:32 | -36.87080 | 144.20807 | 21125 ft | 425 kts | 112° |
| 2026-05-06 04:32 | -36.88176 | 144.24239 | 21126 ft | 425 kts | 112° |
| 2026-05-06 04:33 | -36.88902 | 144.26512 | 21106 ft | 425 kts | 112° |
| 2026-05-06 04:33 | -36.90350 | 144.31047 | 20520 ft | 423 kts | 112° |
| 2026-05-06 04:33 | -36.91083 | 144.33351 | 20212 ft | 421 kts | 112° |
| 2026-05-06 04:33 | -36.92565 | 144.37763 | 19509 ft | 412 kts | 121° |
| 2026-05-06 04:34 | -36.93639 | 144.39709 | 19047 ft | 407 kts | 133° |
| 2026-05-06 04:34 | -36.96092 | 144.43274 | 18161 ft | 401 kts | 133° |
| 2026-05-06 04:34 | -36.97288 | 144.45029 | 17660 ft | 399 kts | 133° |
| 2026-05-06 04:34 | -36.99080 | 144.47632 | 16953 ft | 395 kts | 134° |
| 2026-05-06 04:35 | -37.00873 | 144.50218 | 16257 ft | 391 kts | 134° |
| 2026-05-06 04:35 | -37.02654 | 144.52776 | 15572 ft | 387 kts | 134° |
| 2026-05-06 04:35 | -37.04414 | 144.55299 | 14875 ft | 384 kts | 134° |
| 2026-05-06 04:35 | -37.06169 | 144.57814 | 14158 ft | 381 kts | 134° |
| 2026-05-06 04:36 | -37.07905 | 144.60307 | 13436 ft | 377 kts | 134° |
| 2026-05-06 04:36 | -37.09611 | 144.62759 | 12853 ft | 369 kts | 134° |
| 2026-05-06 04:36 | -37.11281 | 144.65160 | 12230 ft | 363 kts | 134° |
| 2026-05-06 04:36 | -37.12914 | 144.67509 | 11569 ft | 360 kts | 134° |
| 2026-05-06 04:37 | -37.14564 | 144.69882 | 11069 ft | 361 kts | 134° |
| 2026-05-06 04:37 | -37.16292 | 144.72094 | 10839 ft | 349 kts | 148° |
| 2026-05-06 04:37 | -37.18406 | 144.73383 | 10663 ft | 331 kts | 170° |
| 2026-05-06 04:37 | -37.20611 | 144.74040 | 10532 ft | 320 kts | 172° |
| 2026-05-06 04:38 | -37.22734 | 144.74660 | 10331 ft | 308 kts | 173° |
| 2026-05-06 04:38 | -37.24806 | 144.75243 | 10158 ft | 303 kts | 173° |
| 2026-05-06 04:38 | -37.26863 | 144.75808 | 9923 ft | 303 kts | 173° |
| 2026-05-06 04:38 | -37.28923 | 144.76367 | 9580 ft | 302 kts | 173° |
| 2026-05-06 04:39 | -37.30974 | 144.76919 | 9261 ft | 300 kts | 173° |
| 2026-05-06 04:39 | -37.33002 | 144.77454 | 8975 ft | 296 kts | 175° |
| 2026-05-06 04:39 | -37.35020 | 144.77813 | 8711 ft | 290 kts | 178° |
| 2026-05-06 04:39 | -37.37010 | 144.78156 | 8488 ft | 289 kts | 177° |
| 2026-05-06 04:40 | -37.39005 | 144.78511 | 8264 ft | 289 kts | 177° |
| 2026-05-06 04:40 | -37.40995 | 144.78870 | 7996 ft | 288 kts | 176° |
| 2026-05-06 04:40 | -37.42976 | 144.79225 | 7758 ft | 287 kts | 177° |
| 2026-05-06 04:40 | -37.44928 | 144.79579 | 7501 ft | 287 kts | 176° |
| 2026-05-06 04:41 | -37.46895 | 144.79967 | 7235 ft | 286 kts | 175° |
| 2026-05-06 04:41 | -37.48850 | 144.80395 | 6956 ft | 284 kts | 175° |
| 2026-05-06 04:41 | -37.50789 | 144.80817 | 6704 ft | 281 kts | 175° |
| 2026-05-06 04:41 | -37.52701 | 144.81231 | 6445 ft | 277 kts | 174° |
| 2026-05-06 04:42 | -37.54524 | 144.82009 | 6113 ft | 282 kts | 150° |
| 2026-05-06 04:42 | -37.55851 | 144.83797 | 5800 ft | 279 kts | 119° |
| 2026-05-06 04:42 | -37.56372 | 144.86095 | 5584 ft | 268 kts | 95° |
| 2026-05-06 04:42 | -37.56512 | 144.88429 | 5417 ft | 269 kts | 95° |
| 2026-05-06 04:43 | -37.56650 | 144.90785 | 5205 ft | 270 kts | 94° |
| 2026-05-06 04:43 | -37.56783 | 144.93147 | 4928 ft | 270 kts | 94° |
| 2026-05-06 04:43 | -37.56912 | 144.95504 | 4635 ft | 269 kts | 94° |
| 2026-05-06 04:43 | -37.57039 | 144.97824 | 4373 ft | 268 kts | 93° |
| 2026-05-06 04:44 | -37.57359 | 145.00120 | 4085 ft | 266 kts | 115° |
| 2026-05-06 04:44 | -37.58466 | 145.01920 | 3849 ft | 258 kts | 146° |
| 2026-05-06 04:44 | -37.60063 | 145.02801 | 3657 ft | 247 kts | 173° |
| 2026-05-06 04:44 | -37.61745 | 145.02897 | 3447 ft | 235 kts | 186° |
| 2026-05-06 04:45 | -37.63322 | 145.02841 | 3231 ft | 220 kts | 187° |
| 2026-05-06 04:45 | -37.64815 | 145.02751 | 3015 ft | 208 kts | 191° |
| 2026-05-06 04:45 | -37.66100 | 145.02126 | 2736 ft | 194 kts | 226° |
| 2026-05-06 04:45 | -37.66838 | 145.00782 | 2552 ft | 184 kts | 257° |
| 2026-05-06 04:46 | -37.67065 | 144.99224 | 2487 ft | 179 kts | 273° |
| 2026-05-06 04:46 | -37.67007 | 144.97661 | 2378 ft | 178 kts | 280° |
| 2026-05-06 04:46 | -37.66888 | 144.96106 | 2186 ft | 177 kts | 279° |
| 2026-05-06 04:46 | -37.66799 | 144.94639 | 1965 ft | 156 kts | 279° |
| 2026-05-06 04:47 | -37.66723 | 144.93338 | 1758 ft | 145 kts | 279° |
| 2026-05-06 04:47 | -37.66651 | 144.92113 | 1608 ft | 138 kts | 280° |
| 2026-05-06 04:47 | -37.66579 | 144.90910 | 1375 ft | 138 kts | 280° |
| 2026-05-06 04:47 | -37.66507 | 144.89673 | 1199 ft | 144 kts | 281° |
| 2026-05-06 04:48 | -37.66436 | 144.88392 | 1007 ft | 146 kts | 282° |
| 2026-05-06 04:48 | -37.66371 | 144.87105 | 833 ft | 145 kts | 280° |
| 2026-05-06 04:48 | -37.66296 | 144.85835 | 639 ft | 145 kts | 281° |
| 2026-05-06 04:48 | -37.66224 | 144.84579 | 424 ft | 142 kts | 283° |
| 2026-05-06 04:49 | -37.66151 | 144.83535 | 414 ft | 89 kts | 276° |
| 2026-05-06 04:49 | -37.66136 | 144.83130 | 411 ft | 22 kts | 265° |
| 2026-05-06 04:49 | -37.66164 | 144.82958 | 410 ft | 22 kts | 249° |
| 2026-05-06 04:49 | -37.66223 | 144.82792 | 402 ft | 12 kts | 243° |
| 2026-05-06 04:50 | -37.66289 | 144.82693 | 395 ft | 15 kts | 208° |
| 2026-05-06 04:50 | -37.66359 | 144.82682 | 393 ft | 0 kts | 165° |
| 2026-05-06 04:51 | -37.66374 | 144.82689 | 392 ft | 9 kts | 157° |
| 2026-05-06 04:51 | -37.66438 | 144.82775 | 388 ft | 17 kts | 110° |
| 2026-05-06 04:52 | -37.66453 | 144.82920 | 390 ft | 16 kts | 94° |
| 2026-05-06 04:52 | -37.66461 | 144.83056 | 392 ft | 15 kts | 94° |
| 2026-05-06 04:52 | -37.66469 | 144.83181 | 400 ft | 14 kts | 94° |
| 2026-05-06 04:52 | -37.66476 | 144.83308 | 403 ft | 15 kts | 94° |
| 2026-05-06 04:53 | -37.66484 | 144.83442 | 406 ft | 16 kts | 94° |
| 2026-05-06 04:53 | -37.66490 | 144.83550 | 406 ft | 0 kts | 94° |
| 2026-05-06 04:53 | -37.66491 | 144.83561 | 407 ft | 4 kts | 94° |
| 2026-05-06 04:53 | -37.66497 | 144.83671 | 407 ft | 20 kts | 94° |
| 2026-05-06 04:54 | -37.66507 | 144.83846 | 406 ft | 13 kts | 94° |
| 2026-05-06 04:54 | -37.66549 | 144.83937 | 402 ft | 14 kts | 163° |
| 2026-05-06 04:54 | -37.66660 | 144.83960 | 396 ft | 15 kts | 168° |
| 2026-05-06 04:54 | -37.66720 | 144.84049 | 397 ft | 14 kts | 82° |
| 2026-05-06 04:55 | -37.66748 | 144.84156 | 396 ft | 15 kts | 133° |
| 2026-05-06 04:55 | -37.66843 | 144.84202 | 393 ft | 17 kts | 171° |
| 2026-05-06 04:55 | -37.66970 | 144.84226 | 389 ft | 17 kts | 173° |
| 2026-05-06 04:55 | -37.67054 | 144.84282 | 388 ft | 13 kts | 110° |
| 2026-05-06 04:56 | -37.67052 | 144.84390 | 389 ft | 10 kts | 93° |
| 2026-05-06 04:56 | -37.67027 | 144.84458 | 391 ft | 9 kts | 58° |
| 2026-05-06 04:56 | -37.67014 | 144.84542 | 392 ft | 10 kts | 85° |
| 2026-05-06 04:56 | -37.67011 | 144.84606 | 393 ft | 5 kts | 109° |
| 2026-05-06 04:57 | -37.67026 | 144.84616 | 393 ft | 4 kts | 170° |
| 2026-05-06 04:57 | -37.67056 | 144.84622 | 392 ft | 1 kts | 171° |
| 2026-05-06 04:57 | -37.67067 | 144.84624 | 392 ft | 1 kts | 171° |
| 2026-05-06 04:57 | -37.67069 | 144.84624 | 392 ft | 0 kts | 171° |